Time;durP1;ratioP1;P1;durP2;ratioP2;P2;SDS_P1;SDS_P2;PMS_P1;PMS_P2;Temp;Humidity;BMP_temperature;BMP_pressure;BME280_temperature;BME280_humidity;BME280_pressure;Samples;Min_cycle;Max_cycle;Signal;HPM_P1;HPM_P2
2022/12/14 00:03:10;;;;;;;78.00;36.30;;;;;;;-6.22;100.00;100671.81;10581139;27;20093;-73
2022/12/14 00:08:11;;;;;;;78.90;36.67;;;;;;;-6.16;100.00;100675.72;10559982;27;20126;-73
2022/12/14 00:13:13;;;;;;;88.23;40.00;;;;;;;-6.14;100.00;100671.03;10579105;27;20039;-72
2022/12/14 00:18:14;;;;;;;88.00;38.67;;;;;;;-6.12;100.00;100672.59;10578141;27;20048;-73
2022/12/14 00:23:14;;;;;;;79.83;36.53;;;;;;;-6.10;100.00;100669.75;10575458;27;20034;-72
2022/12/14 00:28:15;;;;;;;81.27;37.53;;;;;;;-6.11;100.00;100668.91;10591695;27;20039;-72
2022/12/14 00:33:15;;;;;;;83.87;36.97;;;;;;;-6.15;100.00;100653.28;10578721;27;20047;-73
2022/12/14 00:38:16;;;;;;;91.37;37.43;;;;;;;-6.20;100.00;100663.59;10581918;28;20112;-73
2022/12/14 00:43:17;;;;;;;78.47;35.60;;;;;;;-6.32;100.00;100638.88;10561679;27;20065;-72
2022/12/14 00:48:21;;;;;;;78.27;35.33;;;;;;;-6.37;100.00;100647.34;10571447;27;20080;-74
2022/12/14 00:53:22;;;;;;;79.00;32.97;;;;;;;-6.55;100.00;100625.03;10578335;27;20036;-72
2022/12/14 00:58:23;;;;;;;75.73;34.03;;;;;;;-6.44;100.00;100642.75;10533341;27;20107;-73
2022/12/14 01:03:23;;;;;;;75.80;33.80;;;;;;;-6.50;100.00;100644.19;10563161;27;20060;-73
2022/12/14 01:08:24;;;;;;;79.70;35.93;;;;;;;-6.59;100.00;100635.22;10589833;27;20044;-72
2022/12/14 01:13:24;;;;;;;78.57;35.13;;;;;;;-6.65;100.00;100633.13;10536286;27;20027;-72
2022/12/14 01:18:25;;;;;;;73.00;33.27;;;;;;;-6.74;100.00;100629.53;10579485;27;20040;-73
2022/12/14 01:23:26;;;;;;;76.23;35.17;;;;;;;-6.95;100.00;100594.94;10579178;27;20092;-73
2022/12/14 01:28:26;;;;;;;71.57;33.50;;;;;;;-6.99;100.00;100598.06;10599552;27;20058;-72
2022/12/14 01:33:28;;;;;;;86.37;36.27;;;;;;;-6.93;100.00;100608.19;10566478;28;20038;-72
2022/12/14 01:38:28;;;;;;;74.93;35.10;;;;;;;-6.90;100.00;100619.44;10581336;28;20040;-72
2022/12/14 01:43:56;;;;;;;70.17;36.93;;;;;;;-7.02;100.00;100611.75;10580463;28;20491;-72
2022/12/14 01:49:01;;;;;;;82.10;33.77;;;;;;;-7.16;100.00;100600.50;10547733;28;20042;-72
2022/12/14 01:54:02;;;;;;;73.93;35.43;;;;;;;-7.17;100.00;100601.53;10576048;28;20044;-72
2022/12/14 01:59:04;;;;;;;72.53;33.00;;;;;;;-7.28;100.00;100588.31;10533193;28;20031;-72
2022/12/14 02:04:05;;;;;;;74.93;34.00;;;;;;;-7.37;100.00;100591.88;10560858;27;20402;-72
2022/12/14 02:09:08;;;;;;;82.33;33.37;;;;;;;-7.43;100.00;100590.59;10542258;28;20032;-72
2022/12/14 02:14:08;;;;;;;72.97;34.20;;;;;;;-7.47;100.00;100577.69;10551740;28;20044;-71
2022/12/14 02:19:09;;;;;;;69.80;34.43;;;;;;;-7.52;100.00;100576.28;10577082;28;20048;-72
2022/12/14 02:24:44;;;;;;;80.07;34.90;;;;;;;-7.48;100.00;100586.66;10586061;27;20039;-72
2022/12/14 02:30:00;;;;;;;77.15;34.60;;;;;;;-7.57;100.00;100583.03;10568801;27;20046;-72
2022/12/14 02:35:19;;;;;;;75.80;34.70;;;;;;;-7.65;100.00;100578.41;10585231;27;20099;-72
2022/12/14 02:40:35;;;;;;;74.40;34.13;;;;;;;-7.74;100.00;100571.25;10554579;27;20079;-72
2022/12/14 02:45:44;;;;;;;76.50;36.08;;;;;;;-7.82;100.00;100561.28;10568419;27;20055;-71
2022/12/14 02:50:50;;;;;;;68.50;32.93;;;;;;;-7.88;100.00;100563.69;10536630;28;20127;-72
2022/12/14 02:55:51;;;;;;;78.93;33.80;;;;;;;-7.94;100.00;100563.28;10542147;28;20115;-71
2022/12/14 03:00:53;;;;;;;73.63;31.93;;;;;;;-8.02;100.00;100552.44;10542095;28;20091;-72
2022/12/14 03:05:58;;;;;;;71.70;33.13;;;;;;;-8.20;100.00;100522.94;10543894;28;20032;-72
2022/12/14 03:11:03;;;;;;;67.60;31.33;;;;;;;-8.09;100.00;100551.31;10526128;28;20032;-72
2022/12/14 03:16:08;;;;;;;64.93;31.05;;;;;;;-8.13;100.00;100545.41;10537633;28;20054;-72
2022/12/14 03:21:10;;;;;;;74.25;31.02;;;;;;;-8.12;100.00;100540.94;10540821;28;20067;-72
2022/12/14 03:26:22;;;;;;;72.83;31.97;;;;;;;-8.25;100.00;100505.63;10520789;28;20103;-70
2022/12/14 03:31:31;;;;;;;70.57;33.47;;;;;;;-8.19;100.00;100529.94;10509798;28;20036;-72
2022/12/14 03:36:36;;;;;;;66.37;32.30;;;;;;;-8.24;100.00;100526.88;10519896;28;20035;-71
2022/12/14 03:41:47;;;;;;;63.58;30.73;;;;;;;-8.30;100.00;100521.25;10565994;27;20037;-72
2022/12/14 03:47:10;;;;;;;67.67;30.27;;;;;;;-8.33;100.00;100507.19;10544421;27;20039;-71
2022/12/14 03:52:22;;;;;;;67.43;31.87;;;;;;;-8.36;100.00;100510.13;10573143;27;20052;-72
2022/12/14 03:57:27;;;;;;;71.40;31.10;;;;;;;-8.49;100.00;100498.94;10536436;28;20039;-72
2022/12/14 04:02:51;;;;;;;87.32;31.23;;;;;;;-8.40;100.00;100491.88;10542106;28;20036;-72
2022/12/14 04:08:05;;;;;;;70.57;30.37;;;;;;;-8.34;100.00;100500.16;10549814;27;20069;-72
2022/12/14 04:34:33;;;;;;;71.80;27.27;;;;;;;-8.39;100.00;100470.38;10586622;27;20038;-72
2022/12/14 04:39:37;;;;;;;68.27;29.23;;;;;;;-8.38;100.00;100464.03;10579842;27;20043;-72
2022/12/14 04:44:40;;;;;;;47.50;21.07;;;;;;;-8.53;100.00;100453.00;10581037;27;20044;-72
2022/12/14 04:49:50;;;;;;;72.33;30.37;;;;;;;-8.52;100.00;100465.34;10549582;27;20043;-72
2022/12/14 04:54:56;;;;;;;68.27;29.00;;;;;;;-8.42;100.00;100462.69;10568523;27;20039;-73
2022/12/14 04:59:56;;;;;;;68.20;30.60;;;;;;;-8.38;100.00;100444.53;10590108;27;20041;-73
2022/12/14 05:05:15;;;;;;;70.20;31.40;;;;;;;-8.24;100.00;100454.75;10562839;27;20039;-73
2022/12/14 05:10:41;;;;;;;73.60;30.97;;;;;;;-8.11;100.00;100452.63;10562012;28;20028;-72
2022/12/14 05:15:52;;;;;;;64.50;29.43;;;;;;;-8.06;100.00;100438.84;10538401;28;20052;-71
2022/12/14 05:21:45;;;;;;;66.70;32.13;;;;;;;-7.97;100.00;100437.97;10500600;28;20054;-72
2022/12/14 05:26:29;;;;;;;71.50;28.37;;;;;;;-8.05;100.00;100437.84;10541281;28;20036;-73
2022/12/14 05:31:30;;;;;;;71.10;30.73;;;;;;;-8.17;100.00;100420.31;10533123;28;20036;-73
2022/12/14 05:36:32;;;;;;;67.27;33.30;;;;;;;-8.14;100.00;100409.34;10494338;28;20028;-72
2022/12/14 05:41:32;;;;;;;58.40;29.20;;;;;;;-8.06;100.00;100422.81;10528955;27;20039;-72
2022/12/14 05:46:33;;;;;;;73.47;30.77;;;;;;;-8.17;100.00;100401.63;10566303;28;20050;-72
2022/12/14 05:51:35;;;;;;;70.20;28.77;;;;;;;-8.10;100.00;100416.09;10517173;28;20102;-72
2022/12/14 05:56:35;;;;;;;70.80;30.03;;;;;;;-8.12;100.00;100407.38;10555060;28;20096;-72
2022/12/14 06:01:36;;;;;;;65.97;29.37;;;;;;;-8.19;100.00;100395.56;10541093;27;20032;-72
2022/12/14 06:06:37;;;;;;;67.23;29.53;;;;;;;-8.20;100.00;100397.41;10548676;27;20036;-72
2022/12/14 06:11:38;;;;;;;68.63;28.73;;;;;;;-8.16;100.00;100405.97;10563358;27;20047;-72
2022/12/14 06:16:41;;;;;;;62.57;28.13;;;;;;;-8.22;100.00;100387.88;10566881;27;20050;-72
2022/12/14 06:21:42;;;;;;;61.07;27.30;;;;;;;-8.18;100.00;100397.28;10572637;27;20031;-73
2022/12/14 06:26:42;;;;;;;61.20;27.03;;;;;;;-8.22;100.00;100380.69;10565224;27;20067;-72
2022/12/14 06:31:43;;;;;;;59.13;27.90;;;;;;;-8.15;100.00;100400.47;10566383;27;20437;-70
2022/12/14 06:36:45;;;;;;;69.13;28.50;;;;;;;-8.21;100.00;100381.53;10550679;27;20051;-72
2022/12/14 06:41:48;;;;;;;63.53;25.37;;;;;;;-8.23;100.00;100378.16;10556608;27;20063;-72
2022/12/14 06:46:49;;;;;;;56.60;27.37;;;;;;;-8.28;100.00;100385.78;10585456;27;20107;-73
2022/12/14 06:51:49;;;;;;;56.97;25.73;;;;;;;-8.38;100.00;100377.78;10588869;27;20046;-72
2022/12/14 06:56:50;;;;;;;56.17;25.93;;;;;;;-8.53;100.00;100345.38;10588425;27;20047;-70
2022/12/14 07:01:50;;;;;;;57.17;25.43;;;;;;;-8.52;100.00;100377.25;10563842;27;20522;-72
2022/12/14 07:06:51;;;;;;;53.30;24.53;;;;;;;-8.66;100.00;100366.19;10596188;27;20040;-71
2022/12/14 07:11:51;;;;;;;54.20;24.27;;;;;;;-8.83;100.00;100360.59;10586449;28;20480;-72
2022/12/14 07:16:52;;;;;;;59.87;25.73;;;;;;;-8.80;100.00;100365.66;10585776;27;20551;-71
2022/12/14 07:21:52;;;;;;;54.07;23.43;;;;;;;-8.82;100.00;100361.44;10587288;27;20037;-69
2022/12/14 07:26:55;;;;;;;63.23;25.03;;;;;;;-8.82;100.00;100356.94;10586360;27;20039;-71
2022/12/14 07:31:55;;;;;;;60.67;27.77;;;;;;;-8.85;100.00;100362.53;10586212;27;20035;-71
2022/12/14 07:36:56;;;;;;;56.87;23.20;;;;;;;-8.95;100.00;100362.56;10587217;28;20044;-71
2022/12/14 07:41:56;;;;;;;62.23;26.27;;;;;;;-9.04;100.00;100347.41;10585044;27;20035;-72
2022/12/14 07:46:57;;;;;;;64.97;25.73;;;;;;;-9.04;100.00;100347.41;10584285;27;20039;-72
2022/12/14 07:51:57;;;;;;;63.83;27.73;;;;;;;-8.89;100.00;100368.31;10586913;27;20036;-71
2022/12/14 07:56:58;;;;;;;62.93;27.93;;;;;;;-8.88;100.00;100367.34;10584634;27;20036;-72
2022/12/14 08:01:58;;;;;;;58.70;27.57;;;;;;;-9.02;100.00;100365.94;10583450;27;20062;-72
2022/12/14 08:06:59;;;;;;;58.97;25.53;;;;;;;-8.93;100.00;100359.75;10583449;27;20059;-71
2022/12/14 08:11:59;;;;;;;51.90;24.50;;;;;;;-8.92;100.00;100348.09;10566895;27;20500;-70
2022/12/14 08:17:00;;;;;;;57.17;22.70;;;;;;;-8.84;100.00;100358.91;10566170;27;22418;-71
2022/12/14 08:22:00;;;;;;;55.73;22.53;;;;;;;-8.80;100.00;100352.31;10566613;28;20040;-72
2022/12/14 08:27:01;;;;;;;47.80;22.20;;;;;;;-8.53;100.00;100366.75;10549619;27;20036;-71
2022/12/14 08:32:01;;;;;;;50.27;23.80;;;;;;;-8.52;100.00;100355.91;10582465;27;20028;-72
2022/12/14 08:37:01;;;;;;;48.53;23.57;;;;;;;-8.47;100.00;100352.81;10584643;27;20036;-71
2022/12/14 08:42:02;;;;;;;45.83;21.20;;;;;;;-8.39;100.00;100358.25;10582589;27;20032;-72
2022/12/14 08:47:03;;;;;;;52.60;21.73;;;;;;;-8.39;100.00;100344.03;10582176;28;20036;-74
2022/12/14 08:52:03;;;;;;;52.87;22.20;;;;;;;-8.33;100.00;100349.66;10582405;27;20088;-72
2022/12/14 08:57:04;;;;;;;47.00;22.40;;;;;;;-8.34;100.00;100337.28;10581990;27;20061;-72
2022/12/14 09:02:04;;;;;;;54.03;23.87;;;;;;;-8.22;100.00;100350.47;10580700;27;20109;-72
2022/12/14 09:07:04;;;;;;;55.70;23.80;;;;;;;-8.06;100.00;100353.38;10548137;27;20035;-72
2022/12/14 09:12:06;;;;;;;60.00;25.97;;;;;;;-7.84;100.00;100354.81;10569973;27;20031;-72
2022/12/14 09:17:06;;;;;;;54.53;24.23;;;;;;;-7.76;100.00;100338.88;10569259;27;20092;-72
2022/12/14 09:22:07;;;;;;;58.60;22.50;;;;;;;-7.74;100.00;100341.41;10558669;27;20043;-72
2022/12/14 09:27:07;;;;;;;45.63;20.57;;;;;;;-7.52;100.00;100351.69;10541648;28;20040;-71
2022/12/14 09:32:09;;;;;;;56.93;22.90;;;;;;;-7.46;100.00;100339.56;10560233;27;20051;-71
2022/12/14 09:37:09;;;;;;;51.83;20.77;;;;;;;-7.41;100.00;100337.25;10566144;27;20032;-72
2022/12/14 09:42:36;;;;;;;55.37;23.27;;;;;;;-7.26;100.00;100356.28;10540277;28;20069;-72
2022/12/14 09:47:42;;;;;;;72.53;31.40;;;;;;;-7.22;100.00;100349.66;10556288;28;20044;-72
2022/12/14 09:52:45;;;;;;;54.35;23.42;;;;;;;-7.14;100.00;100352.41;10550588;28;20031;-72
2022/12/14 09:57:46;;;;;;;47.50;22.73;;;;;;;-7.07;100.00;100344.59;10562227;27;20073;-72
2022/12/14 10:03:25;;;;;;;42.03;20.00;;;;;;;-6.97;100.00;100344.53;10543321;28;20039;-72
2022/12/14 10:08:32;;;;;;;42.43;20.60;;;;;;;-6.90;100.00;100330.41;10581557;28;20069;-72
2022/12/14 10:13:47;;;;;;;59.50;23.30;;;;;;;-6.80;100.00;100319.59;10541783;28;20035;-72
2022/12/14 10:18:48;;;;;;;51.50;22.45;;;;;;;-6.70;100.00;100309.66;10564227;28;20043;-72
2022/12/14 10:23:56;;;;;;;47.50;22.40;;;;;;;-6.70;100.00;100298.94;10589843;28;20047;-71
2022/12/14 10:29:02;;;;;;;53.40;22.53;;;;;;;-6.57;100.00;100303.03;10574862;28;20035;-72
2022/12/14 10:34:09;;;;;;;;;;;;;;;-6.54;100.00;100302.72;10539266;28;20118;-75
2022/12/14 10:39:24;;;;;;;48.27;21.47;;;;;;;-6.50;100.00;100298.72;10551969;28;20402;-74
2022/12/14 10:45:04;;;;;;;46.90;20.50;;;;;;;-6.73;100.00;100251.03;10562140;28;20032;-73
2022/12/14 10:50:32;;;;;;;49.77;21.43;;;;;;;-6.17;100.00;100310.47;10583726;27;20058;-73
2022/12/14 10:55:37;;;;;;;48.40;21.53;;;;;;;-5.97;100.00;100294.97;10622377;27;20068;-73
2022/12/14 11:00:38;;;;;;;34.67;16.75;;;;;;;-5.61;100.00;100305.44;10620981;27;20042;-72
2022/12/14 11:05:43;;;;;;;46.63;21.20;;;;;;;-5.29;100.00;100295.81;10616670;27;20027;-73
2022/12/14 11:10:45;;;;;;;50.77;20.50;;;;;;;-5.00;100.00;100302.53;10610474;27;20027;-73
2022/12/14 11:15:49;;;;;;;42.60;20.63;;;;;;;-4.75;100.00;100293.47;10553509;28;20043;-73
2022/12/14 11:20:55;;;;;;;40.20;18.70;;;;;;;-4.59;100.00;100267.59;10543401;28;20095;-73
2022/12/14 11:26:03;;;;;;;34.72;15.32;;;;;;;-4.29;100.00;100282.97;10510388;28;20032;-73
2022/12/14 11:31:12;;;;;;;33.70;15.83;;;;;;;-4.10;100.00;100267.47;10509901;28;20050;-73
2022/12/14 11:36:28;;;;;;;34.87;16.67;;;;;;;-3.92;100.00;100270.75;10578348;27;20126;-73
2022/12/14 11:41:41;;;;;;;35.40;16.03;;;;;;;-3.93;100.00;100252.94;10555960;28;20038;-71
2022/12/14 11:46:46;;;;;;;30.93;14.40;;;;;;;-3.76;100.00;100280.63;10549283;27;20039;-72
2022/12/14 11:52:10;;;;;;;33.03;14.13;;;;;;;-3.56;100.00;100269.41;10620214;27;20035;-73
2022/12/14 11:57:11;;;;;;;32.73;16.00;;;;;;;-3.26;100.00;100276.59;10584297;27;20404;-72
2022/12/14 12:02:27;;;;;;;35.03;15.23;;;;;;;-3.34;100.00;100252.44;10574952;27;20043;-71
2022/12/14 12:07:28;;;;;;;;;;;;;;;-3.28;100.00;100267.88;10626530;27;20031;-73
2022/12/14 12:12:29;;;;;;;27.83;14.13;;;;;;;-3.27;100.00;100282.16;10626296;27;19915;-72
2022/12/14 12:17:35;;;;;;;26.60;13.70;;;;;;;-3.23;100.00;100264.63;10586881;27;20027;-72
2022/12/14 12:22:36;;;;;;;30.00;13.90;;;;;;;-3.14;100.00;100268.97;10598098;27;20108;-72
2022/12/14 12:27:36;;;;;;;26.73;14.70;;;;;;;-3.09;100.00;100254.94;10590607;27;20084;-73
2022/12/14 12:32:41;;;;;;;28.20;15.87;;;;;;;-2.96;100.00;100259.72;10569122;27;20241;-73
2022/12/14 12:37:41;;;;;;;28.03;15.57;;;;;;;-2.80;100.00;100251.50;10544285;28;20107;-73
2022/12/14 12:42:51;;;;;;;30.17;17.10;;;;;;;-2.60;100.00;100259.03;10562482;27;20059;-72
2022/12/14 12:48:04;;;;;;;31.70;16.17;;;;;;;-2.26;100.00;100247.75;10565270;28;20070;-72
2022/12/14 12:53:34;;;;;;;31.50;16.03;;;;;;;-1.31;100.00;100251.38;10519381;28;20039;-72
2022/12/14 12:58:36;;;;;;;25.20;14.63;;;;;;;-0.26;100.00;100245.19;10552160;28;20056;-72
2022/12/14 13:03:37;;;;;;;27.17;14.87;;;;;;;0.76;100.00;100221.81;10558873;28;20043;-72
2022/12/14 13:08:38;;;;;;;25.50;13.83;;;;;;;1.63;100.00;100208.25;10542744;27;20514;-73
2022/12/14 13:13:42;;;;;;;26.13;13.40;;;;;;;1.98;100.00;100194.38;10541898;27;20055;-73
2022/12/14 13:18:44;;;;;;;20.20;11.97;;;;;;;2.50;100.00;100189.75;10541873;28;20036;-72
2022/12/14 13:23:44;;;;;;;19.00;11.88;;;;;;;2.71;100.00;100182.28;10560425;27;20043;-73
2022/12/14 13:29:14;;;;;;;24.08;12.40;;;;;;;2.30;100.00;100175.44;10541802;28;20044;-73
2022/12/14 13:34:21;;;;;;;22.23;13.07;;;;;;;0.86;100.00;100183.47;10545276;27;20566;-72
2022/12/14 13:39:40;;;;;;;;;;;;;;;-0.41;100.00;100207.44;10557271;28;20044;-72
2022/12/14 13:44:59;;;;;;;23.47;14.63;;;;;;;-1.25;100.00;100212.81;10581150;27;19919;-72
2022/12/14 13:50:01;;;;;;;27.97;14.83;;;;;;;-1.90;100.00;100220.00;10581619;28;20054;-73
2022/12/14 13:55:02;;;;;;;25.70;13.13;;;;;;;-2.29;100.00;100221.16;10579826;27;20506;-73
2022/12/14 14:00:02;;;;;;;21.83;12.23;;;;;;;-2.34;100.00;100229.78;10557674;28;20046;-72
2022/12/14 14:05:17;;;;;;;23.53;12.00;;;;;;;-2.37;100.00;100229.34;10533130;28;20036;-72
2022/12/14 14:10:30;;;;;;;23.70;13.63;;;;;;;-2.61;100.00;100230.44;10546763;28;20073;-72
2022/12/14 14:15:35;;;;;;;24.33;13.43;;;;;;;-2.86;100.00;100218.03;10524363;27;20107;-71
2022/12/14 14:20:36;;;;;;;25.77;10.88;;;;;;;-2.92;100.00;100228.72;10485099;28;20044;-72
2022/12/14 14:25:37;;;;;;;22.40;11.13;;;;;;;-2.93;100.00;100214.41;10531656;27;20108;-72
2022/12/14 14:30:51;;;;;;;20.50;10.03;;;;;;;-2.87;100.00;100224.47;10554737;27;20035;-72
2022/12/14 14:35:51;;;;;;;20.20;11.17;;;;;;;-3.27;100.00;100204.94;10544581;28;20510;-72
2022/12/14 14:41:07;;;;;;;20.23;12.60;;;;;;;-3.48;100.00;100237.88;10564332;28;20046;-72
2022/12/14 14:46:08;;;;;;;26.70;13.07;;;;;;;-3.94;100.00;100229.75;10529965;28;20048;-72
2022/12/14 14:51:15;;;;;;;25.83;12.33;;;;;;;-4.19;100.00;100247.03;10511782;28;20123;-72
2022/12/14 14:56:36;;;;;;;27.00;13.37;;;;;;;-4.51;100.00;100248.78;10545079;28;20036;-72
2022/12/14 15:01:36;;;;;;;27.23;13.90;;;;;;;-4.74;100.00;100249.50;10545551;27;20086;-72
2022/12/14 15:06:39;;;;;;;29.43;14.73;;;;;;;-4.98;100.00;100244.13;10530282;28;20061;-72
2022/12/14 15:11:43;;;;;;;31.77;14.17;;;;;;;-5.18;100.00;100249.88;10552871;27;20503;-72
2022/12/14 15:16:44;;;;;;;33.37;14.23;;;;;;;-5.31;100.00;100252.22;10569139;27;20034;-73
2022/12/14 15:21:45;;;;;;;32.67;14.73;;;;;;;-5.43;100.00;100265.09;10568781;27;20042;-72
2022/12/14 15:26:45;;;;;;;27.50;14.50;;;;;;;-5.62;100.00;100270.75;10567793;27;20031;-72
2022/12/14 15:31:48;;;;;;;37.17;16.10;;;;;;;-5.83;100.00;100263.16;10567049;28;20032;-72
2022/12/14 15:36:49;;;;;;;31.27;15.93;;;;;;;-6.05;100.00;100241.34;10585478;27;20054;-71
2022/12/14 15:41:49;;;;;;;32.53;15.40;;;;;;;-6.07;100.00;100246.03;10585171;28;20035;-72
2022/12/14 15:46:52;;;;;;;35.13;16.77;;;;;;;-6.13;100.00;100262.75;10583870;27;20429;-72
2022/12/14 15:51:53;;;;;;;35.80;17.77;;;;;;;-6.23;100.00;100244.13;10567610;27;20070;-72
2022/12/14 15:56:55;;;;;;;35.60;16.73;;;;;;;-6.44;100.00;100244.53;10584546;27;20035;-72
2022/12/14 16:01:57;;;;;;;37.53;17.93;;;;;;;-6.42;100.00;100239.84;10583906;28;20052;-72
2022/12/14 16:07:05;;;;;;;44.27;18.33;;;;;;;-6.34;100.00;100253.28;10567708;27;20063;-72
2022/12/14 16:12:24;;;;;;;43.53;18.73;;;;;;;-6.37;100.00;100266.97;10567643;27;20038;-72
2022/12/14 16:17:28;;;;;;;40.03;21.20;;;;;;;-6.45;100.00;100268.78;10585987;27;20060;-72
2022/12/14 16:22:30;;;;;;;46.80;21.80;;;;;;;-6.55;100.00;100263.53;10582566;27;20099;-72
2022/12/14 16:27:31;;;;;;;38.60;19.27;;;;;;;-6.61;100.00;100256.16;10566414;27;20479;-71
2022/12/14 16:32:31;;;;;;;39.00;20.10;;;;;;;-6.80;100.00;100244.66;10566540;27;20039;-72
2022/12/14 16:37:32;;;;;;;42.07;19.87;;;;;;;-6.75;100.00;100270.94;10548532;27;20031;-72
2022/12/14 16:42:32;;;;;;;39.13;18.53;;;;;;;-6.84;100.00;100258.50;10582051;28;20076;-72
2022/12/14 16:47:32;;;;;;;45.00;19.87;;;;;;;-6.79;100.00;100267.75;10546837;27;20056;-71
2022/12/14 16:52:33;;;;;;;44.00;20.17;;;;;;;-6.86;100.00;100256.00;10583661;27;20073;-72
2022/12/14 16:57:34;;;;;;;44.03;19.47;;;;;;;-6.94;100.00;100250.59;10582244;27;20040;-72
2022/12/14 17:02:40;;;;;;;43.47;20.53;;;;;;;-6.77;100.00;100276.44;10565557;27;20040;-71
2022/12/14 17:07:40;;;;;;;56.45;22.40;;;;;;;-6.71;100.00;100262.44;10547959;27;20039;-72
2022/12/14 17:12:42;;;;;;;46.10;21.40;;;;;;;-6.61;100.00;100256.16;10581460;27;20043;-72
2022/12/14 17:17:43;;;;;;;48.43;22.60;;;;;;;-6.60;100.00;100261.31;10564928;27;20032;-72
2022/12/14 17:22:44;;;;;;;51.00;22.97;;;;;;;-6.42;100.00;100257.75;10563441;28;20055;-72
2022/12/14 17:27:45;;;;;;;45.67;22.43;;;;;;;-6.34;100.00;100261.31;10563629;27;20031;-72
2022/12/14 17:32:45;;;;;;;53.20;21.97;;;;;;;-6.30;100.00;100262.69;10580096;27;20035;-72
2022/12/14 17:37:46;;;;;;;54.13;22.67;;;;;;;-6.31;100.00;100249.44;10562892;28;20035;-72
2022/12/14 17:42:50;;;;;;;49.53;24.27;;;;;;;-6.24;100.00;100244.25;10580044;28;20035;-71
2022/12/14 17:47:51;;;;;;;55.67;23.30;;;;;;;-6.18;100.00;100267.75;10579452;28;20035;-72
2022/12/14 17:52:52;;;;;;;48.13;23.60;;;;;;;-6.30;100.00;100257.31;10562686;28;20043;-72
2022/12/14 17:57:52;;;;;;;44.10;21.23;;;;;;;-6.41;100.00;100270.97;10578946;28;20035;-72
2022/12/14 18:02:53;;;;;;;41.20;22.23;;;;;;;-6.94;100.00;100183.69;10580458;28;20038;-71
2022/12/14 18:07:53;;;;;;;42.97;22.80;;;;;;;-6.54;100.00;100270.56;10580560;28;20096;-71
2022/12/14 18:12:54;;;;;;;45.90;21.37;;;;;;;-6.75;100.00;100244.19;10580469;28;20032;-72
2022/12/14 18:17:55;;;;;;;53.57;24.70;;;;;;;-6.59;100.00;100267.56;10579032;27;20039;-71
2022/12/14 18:22:55;;;;;;;45.30;21.83;;;;;;;-6.52;100.00;100284.66;10563358;28;20108;-72
2022/12/14 18:27:56;;;;;;;46.50;24.13;;;;;;;-6.49;100.00;100287.00;10579618;28;21318;-72
2022/12/14 18:32:57;;;;;;;42.43;22.30;;;;;;;-6.64;100.00;100264.47;10577888;28;20032;-71
2022/12/14 18:37:58;;;;;;;43.07;21.40;;;;;;;-6.47;100.00;100319.81;10555860;28;20032;-71
2022/12/14 18:42:58;;;;;;;43.37;22.20;;;;;;;-6.54;100.00;100281.28;10557618;28;20509;-71
2022/12/14 18:47:59;;;;;;;46.33;22.23;;;;;;;-6.50;100.00;100271.94;10526166;28;20040;-72
2022/12/14 18:53:00;;;;;;;46.33;22.20;;;;;;;-6.42;100.00;100280.03;10515815;28;20040;-72
2022/12/14 18:58:01;;;;;;;43.63;20.77;;;;;;;-6.37;100.00;100285.72;10567558;27;20035;-71
2022/12/14 19:03:02;;;;;;;46.47;20.50;;;;;;;-6.34;100.00;100282.75;10552556;27;20039;-72
2022/12/14 19:08:06;;;;;;;48.00;18.50;;;;;;;-6.29;100.00;100291.13;10563691;27;20036;-72
2022/12/14 19:13:10;;;;;;;39.63;19.60;;;;;;;-6.32;100.00;100283.44;10587495;27;20565;-72
2022/12/14 19:18:10;;;;;;;45.80;19.43;;;;;;;-6.32;100.00;100286.09;10583406;27;20400;-73
2022/12/14 19:23:15;;;;;;;38.40;18.40;;;;;;;-6.31;100.00;100279.72;10567859;27;20074;-72
2022/12/14 19:28:16;;;;;;;39.53;17.77;;;;;;;-6.32;100.00;100275.38;10572251;27;20039;-72
2022/12/14 19:33:16;;;;;;;38.07;18.93;;;;;;;-6.29;100.00;100288.44;10601530;27;20043;-71
2022/12/14 19:38:18;;;;;;;40.23;18.73;;;;;;;-6.32;100.00;100293.31;10582245;27;20035;-72
2022/12/14 19:43:19;;;;;;;35.73;17.67;;;;;;;-6.42;100.00;100290.72;10529351;27;20519;-72
2022/12/14 19:48:20;;;;;;;32.37;16.53;;;;;;;-6.46;100.00;100294.72;10582983;27;20034;-72
2022/12/14 19:53:20;;;;;;;40.43;19.70;;;;;;;-6.53;100.00;100299.03;10564608;28;20046;-73
2022/12/14 19:58:23;;;;;;;30.77;17.03;;;;;;;-6.74;100.00;100273.47;10564585;27;20031;-73
2022/12/14 20:03:24;;;;;;;37.23;17.47;;;;;;;-6.81;100.00;100275.09;10585608;27;20108;-73
2022/12/14 20:08:28;;;;;;;35.40;18.60;;;;;;;-6.68;100.00;100306.78;10579722;27;20069;-72
2022/12/14 20:13:29;;;;;;;33.67;17.00;;;;;;;-7.22;100.00;100210.56;10618842;27;20031;-72
2022/12/14 20:18:30;;;;;;;33.23;17.20;;;;;;;-6.63;100.00;100287.59;10607012;27;20077;-72
2022/12/14 20:23:31;;;;;;;32.00;17.20;;;;;;;-6.49;100.00;100295.03;10606451;27;20039;-72
2022/12/14 20:28:31;;;;;;;36.23;17.53;;;;;;;-6.46;100.00;100304.59;10623809;27;20031;-72
2022/12/14 20:33:32;;;;;;;35.57;17.10;;;;;;;-6.52;100.00;100301.53;10602021;27;20038;-73
2022/12/14 20:38:33;;;;;;;33.37;16.73;;;;;;;-6.51;100.00;100307.72;10577545;27;20398;-72
2022/12/14 20:43:37;;;;;;;34.93;16.60;;;;;;;-6.50;100.00;100314.78;10613593;27;20526;-73
2022/12/14 20:48:37;;;;;;;36.60;16.43;;;;;;;-6.58;100.00;100314.72;10598546;27;20035;-72
2022/12/14 20:53:38;;;;;;;32.93;16.27;;;;;;;-6.54;100.00;100324.13;10613427;27;20043;-71
2022/12/14 20:58:38;;;;;;;27.30;16.73;;;;;;;-6.55;100.00;100325.97;10606254;27;20050;-72
2022/12/14 21:03:39;;;;;;;34.60;17.93;;;;;;;-6.53;100.00;100337.38;10623540;27;20027;-72
2022/12/14 21:13:59;;;;;;;35.63;15.70;;;;;;;-6.39;100.00;100330.56;10621166;27;20069;-72
2022/12/14 21:18:59;;;;;;;30.33;16.10;;;;;;;-6.25;100.00;100337.19;10621483;27;20439;-72
2022/12/14 21:24:00;;;;;;;24.87;14.73;;;;;;;-5.97;100.00;100337.88;10563062;27;20035;-73
2022/12/14 21:29:00;;;;;;;30.90;15.40;;;;;;;-5.82;100.00;100334.56;10578454;28;20040;-72
2022/12/14 21:34:01;;;;;;;32.53;14.80;;;;;;;-5.79;100.00;100337.72;10578046;28;20093;-73
2022/12/14 21:39:02;;;;;;;33.03;15.67;;;;;;;-5.84;100.00;100336.56;10579625;27;20028;-72
2022/12/14 21:44:02;;;;;;;25.97;13.80;;;;;;;-6.00;100.00;100330.13;10581889;27;20058;-73
2022/12/14 21:49:05;;;;;;;25.70;14.23;;;;;;;-6.00;100.00;100348.91;10562566;28;20039;-73
2022/12/14 21:54:06;;;;;;;23.47;13.30;;;;;;;-6.29;100.00;100325.94;10546354;28;20055;-72
2022/12/14 21:59:06;;;;;;;30.90;14.07;;;;;;;-6.24;100.00;100340.72;10553024;28;20086;-72
2022/12/14 22:04:06;;;;;;;29.57;14.70;;;;;;;-6.29;100.00;100339.34;10574916;27;20036;-73
2022/12/14 22:09:07;;;;;;;27.10;14.43;;;;;;;-6.25;100.00;100345.25;10562253;28;20036;-73
2022/12/14 22:14:11;;;;;;;31.57;15.00;;;;;;;-6.10;100.00;100366.94;10537613;28;20061;-72
2022/12/14 22:19:14;;;;;;;30.20;15.27;;;;;;;-6.30;100.00;100326.97;10577575;27;20131;-72
2022/12/14 22:24:15;;;;;;;29.27;14.23;;;;;;;-6.27;100.00;100354.44;10560500;28;20431;-72
2022/12/14 22:29:16;;;;;;;27.40;14.13;;;;;;;-6.24;100.00;100359.47;10572485;27;20068;-73
2022/12/14 22:34:21;;;;;;;30.60;14.77;;;;;;;-6.29;100.00;100355.44;10600353;27;20467;-73
2022/12/14 22:39:22;;;;;;;30.98;15.15;;;;;;;-6.45;100.00;100349.13;10581333;27;20065;-72
2022/12/14 22:44:22;;;;;;;29.07;14.47;;;;;;;-6.52;100.00;100362.31;10619381;27;20035;-72
2022/12/14 22:49:23;;;;;;;36.70;16.43;;;;;;;-6.57;100.00;100375.34;10634483;27;20054;-72
2022/12/14 22:54:24;;;;;;;35.87;17.40;;;;;;;-6.64;100.00;100379.63;10609827;27;20452;-72
2022/12/14 22:59:35;;;;;;;42.17;18.13;;;;;;;-6.59;100.00;100390.72;10621877;27;20047;-72